sensor_id;sensor_type;location;lat;lon;timestamp;P1;durP1;ratioP1;P2;durP2;ratioP2
16967;SDS011;64862;54.398;10.126;2024-03-06T00:09:19;14.75;;;6.65;;
16967;SDS011;64862;54.398;10.126;2024-03-06T00:19:22;15.32;;;6.47;;
16967;SDS011;64862;54.398;10.126;2024-03-06T00:29:24;11.93;;;6.63;;
16967;SDS011;64862;54.398;10.126;2024-03-06T00:39:27;11.75;;;6.72;;
16967;SDS011;64862;54.398;10.126;2024-03-06T00:49:29;12.63;;;5.43;;
16967;SDS011;64862;54.398;10.126;2024-03-06T00:59:33;10.02;;;5.78;;
16967;SDS011;64862;54.398;10.126;2024-03-06T01:09:35;10.25;;;5.85;;
16967;SDS011;64862;54.398;10.126;2024-03-06T01:19:39;10.05;;;5.40;;
16967;SDS011;64862;54.398;10.126;2024-03-06T01:29:41;10.30;;;5.40;;
16967;SDS011;64862;54.398;10.126;2024-03-06T01:39:44;9.95;;;5.20;;
16967;SDS011;64862;54.398;10.126;2024-03-06T01:49:46;9.18;;;5.05;;
16967;SDS011;64862;54.398;10.126;2024-03-06T01:59:50;8.50;;;5.03;;
16967;SDS011;64862;54.398;10.126;2024-03-06T02:09:52;9.60;;;5.13;;
16967;SDS011;64862;54.398;10.126;2024-03-06T02:19:56;7.72;;;4.60;;
16967;SDS011;64862;54.398;10.126;2024-03-06T02:30:00;8.68;;;4.70;;
16967;SDS011;64862;54.398;10.126;2024-03-06T02:40:03;9.68;;;4.97;;
16967;SDS011;64862;54.398;10.126;2024-03-06T02:50:10;9.13;;;4.80;;
16967;SDS011;64862;54.398;10.126;2024-03-06T03:00:13;8.82;;;5.07;;
16967;SDS011;64862;54.398;10.126;2024-03-06T03:10:17;10.38;;;5.97;;
16967;SDS011;64862;54.398;10.126;2024-03-06T03:20:19;11.52;;;5.82;;
16967;SDS011;64862;54.398;10.126;2024-03-06T03:30:23;9.07;;;5.70;;
16967;SDS011;64862;54.398;10.126;2024-03-06T03:40:25;12.65;;;6.45;;
16967;SDS011;64862;54.398;10.126;2024-03-06T03:50:28;10.75;;;6.40;;
16967;SDS011;64862;54.398;10.126;2024-03-06T04:00:30;11.52;;;6.43;;
16967;SDS011;64862;54.398;10.126;2024-03-06T04:10:34;10.80;;;6.30;;
16967;SDS011;64862;54.398;10.126;2024-03-06T04:20:36;10.68;;;6.25;;
16967;SDS011;64862;54.398;10.126;2024-03-06T04:30:40;12.77;;;6.00;;
16967;SDS011;64862;54.398;10.126;2024-03-06T04:40:42;11.27;;;6.45;;
16967;SDS011;64862;54.398;10.126;2024-03-06T04:50:46;11.65;;;6.30;;
16967;SDS011;64862;54.398;10.126;2024-03-06T05:00:48;14.23;;;7.47;;
16967;SDS011;64862;54.398;10.126;2024-03-06T05:10:51;12.63;;;6.63;;
16967;SDS011;64862;54.398;10.126;2024-03-06T05:20:53;13.75;;;7.45;;
16967;SDS011;64862;54.398;10.126;2024-03-06T05:30:57;14.23;;;7.40;;
16967;SDS011;64862;54.398;10.126;2024-03-06T05:41:14;14.48;;;8.35;;
16967;SDS011;64862;54.398;10.126;2024-03-06T05:51:43;15.18;;;8.43;;
16967;SDS011;64862;54.398;10.126;2024-03-06T06:01:46;14.73;;;7.78;;
16967;SDS011;64862;54.398;10.126;2024-03-06T06:11:49;15.98;;;7.90;;
16967;SDS011;64862;54.398;10.126;2024-03-06T06:21:51;15.30;;;8.20;;
16967;SDS011;64862;54.398;10.126;2024-03-06T06:31:57;15.05;;;8.20;;
16967;SDS011;64862;54.398;10.126;2024-03-06T06:42:00;17.83;;;9.02;;
16967;SDS011;64862;54.398;10.126;2024-03-06T06:52:04;15.70;;;8.90;;
16967;SDS011;64862;54.398;10.126;2024-03-06T07:02:06;14.73;;;7.93;;
16967;SDS011;64862;54.398;10.126;2024-03-06T07:12:10;12.07;;;7.22;;
16967;SDS011;64862;54.398;10.126;2024-03-06T07:22:12;9.07;;;5.70;;
16967;SDS011;64862;54.398;10.126;2024-03-06T07:32:15;11.02;;;5.60;;
16967;SDS011;64862;54.398;10.126;2024-03-06T07:42:17;9.07;;;5.05;;
16967;SDS011;64862;54.398;10.126;2024-03-06T07:52:21;9.57;;;5.10;;
16967;SDS011;64862;54.398;10.126;2024-03-06T08:02:23;10.70;;;6.07;;
16967;SDS011;64862;54.398;10.126;2024-03-06T08:12:26;9.18;;;6.00;;
16967;SDS011;64862;54.398;10.126;2024-03-06T08:22:28;10.40;;;5.53;;
16967;SDS011;64862;54.398;10.126;2024-03-06T08:32:32;9.98;;;5.90;;
16967;SDS011;64862;54.398;10.126;2024-03-06T08:42:35;10.52;;;5.40;;
16967;SDS011;64862;54.398;10.126;2024-03-06T08:52:39;11.57;;;5.80;;
16967;SDS011;64862;54.398;10.126;2024-03-06T09:02:41;10.70;;;5.15;;
16967;SDS011;64862;54.398;10.126;2024-03-06T09:12:45;9.20;;;5.55;;
16967;SDS011;64862;54.398;10.126;2024-03-06T09:22:47;10.95;;;5.28;;
16967;SDS011;64862;54.398;10.126;2024-03-06T09:32:50;10.85;;;5.45;;
16967;SDS011;64862;54.398;10.126;2024-03-06T09:42:52;11.05;;;5.65;;
16967;SDS011;64862;54.398;10.126;2024-03-06T09:52:56;10.85;;;5.38;;
16967;SDS011;64862;54.398;10.126;2024-03-06T10:02:58;13.10;;;6.25;;
16967;SDS011;64862;54.398;10.126;2024-03-06T10:13:02;11.30;;;6.50;;
16967;SDS011;64862;54.398;10.126;2024-03-06T10:23:05;11.07;;;6.80;;
16967;SDS011;64862;54.398;10.126;2024-03-06T10:33:11;16.35;;;7.55;;
16967;SDS011;64862;54.398;10.126;2024-03-06T10:43:13;12.57;;;7.88;;
16967;SDS011;64862;54.398;10.126;2024-03-06T10:53:17;26.92;;;14.60;;
16967;SDS011;64862;54.398;10.126;2024-03-06T11:03:20;12.82;;;7.65;;
16967;SDS011;64862;54.398;10.126;2024-03-06T11:13:25;13.10;;;6.90;;
16967;SDS011;64862;54.398;10.126;2024-03-06T11:23:29;10.52;;;6.20;;
16967;SDS011;64862;54.398;10.126;2024-03-06T11:33:35;8.80;;;5.95;;
16967;SDS011;64862;54.398;10.126;2024-03-06T11:43:41;11.80;;;6.18;;
16967;SDS011;64862;54.398;10.126;2024-03-06T11:53:45;11.70;;;7.13;;
16967;SDS011;64862;54.398;10.126;2024-03-06T12:03:50;13.77;;;7.82;;
16967;SDS011;64862;54.398;10.126;2024-03-06T12:13:53;13.73;;;8.20;;
16967;SDS011;64862;54.398;10.126;2024-03-06T12:24:03;14.68;;;7.97;;
16967;SDS011;64862;54.398;10.126;2024-03-06T12:34:07;14.05;;;8.13;;
16967;SDS011;64862;54.398;10.126;2024-03-06T12:44:14;12.33;;;7.27;;
16967;SDS011;64862;54.398;10.126;2024-03-06T12:54:17;15.18;;;8.63;;
16967;SDS011;64862;54.398;10.126;2024-03-06T13:04:20;20.30;;;11.10;;
16967;SDS011;64862;54.398;10.126;2024-03-06T13:14:24;17.08;;;9.63;;
16967;SDS011;64862;54.398;10.126;2024-03-06T13:24:26;14.05;;;7.82;;
16967;SDS011;64862;54.398;10.126;2024-03-06T13:34:30;11.02;;;6.25;;
16967;SDS011;64862;54.398;10.126;2024-03-06T13:44:32;9.57;;;5.70;;
16967;SDS011;64862;54.398;10.126;2024-03-06T13:54:37;9.02;;;5.72;;
16967;SDS011;64862;54.398;10.126;2024-03-06T14:04:39;7.57;;;4.93;;
16967;SDS011;64862;54.398;10.126;2024-03-06T14:14:43;8.07;;;5.03;;
16967;SDS011;64862;54.398;10.126;2024-03-06T14:24:45;8.50;;;4.70;;
16967;SDS011;64862;54.398;10.126;2024-03-06T14:34:48;6.90;;;4.38;;
16967;SDS011;64862;54.398;10.126;2024-03-06T14:44:50;8.45;;;5.32;;
16967;SDS011;64862;54.398;10.126;2024-03-06T14:54:54;6.57;;;4.95;;
16967;SDS011;64862;54.398;10.126;2024-03-06T15:04:56;9.18;;;5.85;;
16967;SDS011;64862;54.398;10.126;2024-03-06T15:14:59;7.93;;;5.13;;
16967;SDS011;64862;54.398;10.126;2024-03-06T15:25:03;8.40;;;5.78;;
16967;SDS011;64862;54.398;10.126;2024-03-06T15:35:08;9.57;;;6.30;;
16967;SDS011;64862;54.398;10.126;2024-03-06T15:45:12;8.65;;;6.13;;
16967;SDS011;64862;54.398;10.126;2024-03-06T15:55:16;9.70;;;6.63;;
16967;SDS011;64862;54.398;10.126;2024-03-06T16:05:18;9.95;;;7.00;;
16967;SDS011;64862;54.398;10.126;2024-03-06T16:15:21;12.05;;;8.45;;
16967;SDS011;64862;54.398;10.126;2024-03-06T16:25:23;11.52;;;8.88;;
16967;SDS011;64862;54.398;10.126;2024-03-06T16:35:27;11.73;;;9.10;;
16967;SDS011;64862;54.398;10.126;2024-03-06T16:45:29;12.15;;;9.52;;
16967;SDS011;64862;54.398;10.126;2024-03-06T16:55:34;13.35;;;9.93;;
16967;SDS011;64862;54.398;10.126;2024-03-06T17:05:36;11.75;;;8.20;;
16967;SDS011;64862;54.398;10.126;2024-03-06T17:15:39;12.15;;;8.48;;
16967;SDS011;64862;54.398;10.126;2024-03-06T17:25:42;47.97;;;18.60;;
16967;SDS011;64862;54.398;10.126;2024-03-06T17:35:46;13.85;;;9.43;;
16967;SDS011;64862;54.398;10.126;2024-03-06T17:45:48;12.95;;;8.65;;
16967;SDS011;64862;54.398;10.126;2024-03-06T17:55:51;12.50;;;8.50;;
16967;SDS011;64862;54.398;10.126;2024-03-06T18:05:53;14.15;;;9.20;;
16967;SDS011;64862;54.398;10.126;2024-03-06T18:15:57;17.13;;;10.40;;
16967;SDS011;64862;54.398;10.126;2024-03-06T18:25:59;30.52;;;15.45;;
16967;SDS011;64862;54.398;10.126;2024-03-06T18:36:04;19.00;;;11.63;;
16967;SDS011;64862;54.398;10.126;2024-03-06T18:46:07;19.60;;;12.65;;
16967;SDS011;64862;54.398;10.126;2024-03-06T18:56:10;20.90;;;12.80;;
16967;SDS011;64862;54.398;10.126;2024-03-06T19:06:12;22.85;;;14.45;;
16967;SDS011;64862;54.398;10.126;2024-03-06T19:16:18;16.67;;;11.00;;
16967;SDS011;64862;54.398;10.126;2024-03-06T19:26:20;23.00;;;13.38;;
16967;SDS011;64862;54.398;10.126;2024-03-06T19:36:24;19.55;;;11.70;;
16967;SDS011;64862;54.398;10.126;2024-03-06T19:46:26;19.63;;;13.45;;
16967;SDS011;64862;54.398;10.126;2024-03-06T19:56:29;23.20;;;14.70;;
16967;SDS011;64862;54.398;10.126;2024-03-06T20:06:31;25.70;;;14.60;;
16967;SDS011;64862;54.398;10.126;2024-03-06T20:16:35;19.83;;;11.98;;
16967;SDS011;64862;54.398;10.126;2024-03-06T20:26:37;21.67;;;11.30;;
16967;SDS011;64862;54.398;10.126;2024-03-06T20:36:41;16.20;;;8.55;;
16967;SDS011;64862;54.398;10.126;2024-03-06T20:46:43;12.68;;;7.88;;
16967;SDS011;64862;54.398;10.126;2024-03-06T20:56:48;18.98;;;9.75;;
16967;SDS011;64862;54.398;10.126;2024-03-06T21:06:50;23.45;;;11.88;;
16967;SDS011;64862;54.398;10.126;2024-03-06T21:16:54;26.52;;;13.30;;
16967;SDS011;64862;54.398;10.126;2024-03-06T21:26:56;38.58;;;17.17;;
16967;SDS011;64862;54.398;10.126;2024-03-06T21:36:59;53.42;;;20.98;;
16967;SDS011;64862;54.398;10.126;2024-03-06T21:47:01;49.28;;;19.52;;
16967;SDS011;64862;54.398;10.126;2024-03-06T21:57:05;42.42;;;17.17;;
16967;SDS011;64862;54.398;10.126;2024-03-06T22:07:11;44.65;;;14.80;;
16967;SDS011;64862;54.398;10.126;2024-03-06T22:17:14;30.95;;;12.65;;
16967;SDS011;64862;54.398;10.126;2024-03-06T22:27:16;29.50;;;12.30;;
16967;SDS011;64862;54.398;10.126;2024-03-06T22:37:20;28.48;;;12.15;;
16967;SDS011;64862;54.398;10.126;2024-03-06T22:47:22;28.75;;;12.27;;
16967;SDS011;64862;54.398;10.126;2024-03-06T22:57:25;28.35;;;11.45;;
16967;SDS011;64862;54.398;10.126;2024-03-06T23:07:27;28.20;;;12.38;;
16967;SDS011;64862;54.398;10.126;2024-03-06T23:17:31;28.63;;;12.40;;
16967;SDS011;64862;54.398;10.126;2024-03-06T23:27:33;27.02;;;11.70;;
16967;SDS011;64862;54.398;10.126;2024-03-06T23:37:37;25.48;;;11.23;;
16967;SDS011;64862;54.398;10.126;2024-03-06T23:47:39;22.02;;;10.77;;
16967;SDS011;64862;54.398;10.126;2024-03-06T23:57:43;20.75;;;9.80;;
